Time;durP1;ratioP1;P1;durP2;ratioP2;P2;SDS_P1;SDS_P2;PMS_P1;PMS_P2;Temp;Humidity;BMP_temperature;BMP_pressure;BME280_temperature;BME280_humidity;BME280_pressure;Samples;Min_cycle;Max_cycle;Signal;HPM_P1;HPM_P2
2022/12/21 00:02:20;;;;;;;9.03;6.50;;;8.00;99.90;;;;;;5019523;28;20209;-90
2022/12/21 00:04:46;;;;;;;9.20;5.90;;;8.00;99.90;;;;;;5018835;28;20633;-91
2022/12/21 00:07:12;;;;;;;9.77;6.33;;;8.00;99.90;;;;;;5018910;28;20218;-90
2022/12/21 00:09:37;;;;;;;7.80;6.07;;;7.90;99.90;;;;;;5019082;28;20644;-90
2022/12/21 00:12:03;;;;;;;10.97;6.30;;;7.90;99.90;;;;;;5018924;28;20567;-88
2022/12/21 00:14:29;;;;;;;11.30;6.40;;;7.90;99.90;;;;;;5018555;28;20187;-89
2022/12/21 00:16:54;;;;;;;11.23;6.17;;;7.90;99.90;;;;;;5018291;28;20181;-89
2022/12/21 00:19:20;;;;;;;9.00;6.37;;;7.90;99.90;;;;;;5017955;28;20210;-89
2022/12/21 00:21:46;;;;;;;10.97;6.83;;;7.90;99.90;;;;;;5018586;28;20520;-88
2022/12/21 00:24:12;;;;;;;11.47;7.83;;;7.90;99.90;;;;;;5018495;28;20204;-88
2022/12/21 00:26:38;;;;;;;11.27;7.13;;;7.90;99.90;;;;;;5018602;28;20596;-87
2022/12/21 00:29:04;;;;;;;10.03;7.50;;;7.90;99.90;;;;;;5018606;28;20265;-90
2022/12/21 00:31:36;;;;;;;12.17;7.57;;;7.90;99.90;;;;;;5018625;28;20170;-88
2022/12/21 00:34:03;;;;;;;11.30;7.50;;;7.90;99.90;;;;;;5018372;28;20189;-88
2022/12/21 00:36:29;;;;;;;10.63;7.57;;;7.90;99.90;;;;;;5036064;28;20159;-91
2022/12/21 00:38:56;;;;;;;15.33;7.53;;;7.90;99.90;;;;;;5018486;28;20278;-90
2022/12/21 00:41:24;;;;;;;10.67;8.10;;;7.90;99.90;;;;;;5018363;28;20560;-89
2022/12/21 00:43:52;;;;;;;11.70;7.80;;;7.90;99.90;;;;;;5018160;28;20189;-90
2022/12/21 00:46:24;;;;;;;14.40;8.53;;;7.80;99.90;;;;;;5017714;28;20252;-89
2022/12/21 00:48:50;;;;;;;13.90;8.60;;;7.90;99.90;;;;;;5034828;28;20556;-90
2022/12/21 00:51:19;;;;;;;15.00;8.60;;;7.90;99.90;;;;;;5018432;28;20196;-87
2022/12/21 00:53:45;;;;;;;13.20;9.00;;;7.90;99.90;;;;;;5018213;28;20179;-89
2022/12/21 00:56:12;;;;;;;12.00;8.60;;;7.80;99.90;;;;;;5018012;28;20615;-90
2022/12/21 00:58:38;;;;;;;16.73;10.10;;;7.90;99.90;;;;;;5017974;28;20298;-90
2022/12/21 01:01:11;;;;;;;12.03;9.03;;;7.80;99.90;;;;;;5017722;28;20182;-87
2022/12/21 01:03:38;;;;;;;13.63;9.27;;;7.90;99.90;;;;;;5001723;28;20648;-89
2022/12/21 01:06:04;;;;;;;16.60;10.57;;;7.90;99.90;;;;;;5035594;28;20174;-89
2022/12/21 01:08:31;;;;;;;13.30;9.20;;;7.90;99.90;;;;;;5051908;28;20229;-88
2022/12/21 01:11:03;;;;;;;14.40;10.20;;;7.90;99.90;;;;;;5054112;28;20192;-89
2022/12/21 01:13:30;;;;;;;16.77;9.73;;;7.90;99.90;;;;;;5037304;28;20178;-90
2022/12/21 01:15:56;;;;;;;12.97;9.93;;;7.90;99.90;;;;;;5055475;28;20189;-89
2022/12/21 01:18:22;;;;;;;15.77;10.43;;;7.80;99.90;;;;;;5037439;28;20281;-90
2022/12/21 01:20:49;;;;;;;15.97;10.70;;;7.80;99.90;;;;;;5037861;28;20284;-90
2022/12/21 01:23:16;;;;;;;14.10;9.93;;;7.80;99.90;;;;;;5037481;28;20178;-90
2022/12/21 01:25:43;;;;;;;15.13;10.63;;;7.80;99.90;;;;;;5037716;28;20680;-88
2022/12/21 01:28:09;;;;;;;13.30;10.13;;;7.80;99.90;;;;;;5055248;28;20196;-91
2022/12/21 01:30:38;;;;;;;15.23;11.47;;;7.80;99.90;;;;;;5037031;28;20189;-91
2022/12/21 01:33:23;;;;;;;17.73;10.93;;;7.80;99.90;;;;;;5055109;28;20597;-88
2022/12/21 01:35:48;;;;;;;14.73;10.77;;;7.80;99.90;;;;;;5037615;28;20209;-90
2022/12/21 01:38:14;;;;;;;15.80;10.77;;;7.80;99.90;;;;;;5037031;28;20206;-91
2022/12/21 01:40:40;;;;;;;16.83;11.03;;;7.80;99.90;;;;;;5037312;28;20503;-92
2022/12/21 01:43:18;;;;;;;15.87;11.43;;;7.80;99.90;;;;;;5037230;28;20186;-90
2022/12/21 01:45:50;;;;;;;14.87;11.13;;;7.80;99.90;;;;;;5036997;28;20197;-91
2022/12/21 01:48:17;;;;;;;18.50;11.40;;;7.80;99.90;;;;;;5037236;28;20185;-92
2022/12/21 01:50:48;;;;;;;17.10;11.27;;;7.80;99.90;;;;;;5051166;28;20183;-91
2022/12/21 01:53:34;;;;;;;15.53;11.23;;;7.80;99.90;;;;;;5046520;28;20278;-91
2022/12/21 01:56:04;;;;;;;16.57;11.70;;;7.80;99.90;;;;;;5017365;28;20602;-91
2022/12/21 01:58:32;;;;;;;16.57;11.53;;;7.80;99.90;;;;;;5017208;28;20552;-92
2022/12/21 02:00:59;;;;;;;16.77;11.80;;;7.80;99.90;;;;;;5016738;28;20186;-90
2022/12/21 02:03:32;;;;;;;17.63;11.93;;;7.80;99.90;;;;;;5016735;28;20182;-91
2022/12/21 02:06:08;;;;;;;17.00;11.43;;;7.80;99.90;;;;;;5017229;28;20190;-91
2022/12/21 02:08:34;;;;;;;19.23;12.87;;;7.70;99.90;;;;;;5000079;28;20253;-90
2022/12/21 02:11:01;;;;;;;21.10;12.63;;;7.80;99.90;;;;;;4997186;28;20264;-90
2022/12/21 02:13:27;;;;;;;18.17;12.90;;;7.80;99.90;;;;;;4997406;28;20190;-91
2022/12/21 02:15:59;;;;;;;19.07;12.93;;;7.70;99.90;;;;;;5014608;28;20183;-91
2022/12/21 02:18:53;;;;;;;19.00;13.03;;;7.70;99.90;;;;;;4997145;28;20177;-91
2022/12/21 02:21:29;;;;;;;20.77;13.23;;;7.70;99.90;;;;;;4997501;28;20186;-90
2022/12/21 02:24:10;;;;;;;19.50;12.47;;;7.70;99.90;;;;;;4997414;28;20171;-92
2022/12/21 02:27:03;;;;;;;19.90;12.70;;;7.70;99.90;;;;;;5014808;28;20163;-91
2022/12/21 02:29:35;;;;;;;18.60;12.43;;;7.70;99.90;;;;;;4997370;28;20178;-89
2022/12/21 02:32:27;;;;;;;17.57;12.23;;;7.70;99.90;;;;;;4997393;28;20541;-91
2022/12/21 02:35:30;;;;;;;20.17;12.97;;;7.70;99.90;;;;;;5014711;28;20174;-91
2022/12/21 02:37:58;;;;;;;19.33;13.10;;;7.70;99.90;;;;;;5014944;28;20170;-92
2022/12/21 02:40:44;;;;;;;21.03;13.07;;;7.70;99.90;;;;;;5014639;28;20293;-92
2022/12/21 02:46:34;;;;;;;17.70;12.60;;;7.70;99.90;;;;;;5037171;28;20196;-90
2022/12/21 02:49:26;;;;;;;17.90;12.90;;;7.70;99.90;;;;;;5476605;22;20261;-89
2022/12/21 02:51:52;;;;;;;19.67;13.57;;;7.70;99.90;;;;;;5033988;28;20190;-88
2022/12/21 02:54:18;;;;;;;20.73;14.53;;;7.70;99.90;;;;;;5070641;28;20532;-87
2022/12/21 02:56:44;;;;;;;19.93;14.00;;;7.70;99.90;;;;;;5077030;28;20271;-89
2022/12/21 02:59:13;;;;;;;22.73;15.40;;;7.70;99.90;;;;;;5076591;28;20304;-89
2022/12/21 03:01:51;;;;;;;21.53;15.33;;;7.70;99.90;;;;;;5076658;28;20188;-87
2022/12/21 03:04:33;;;;;;;23.33;15.17;;;7.70;99.90;;;;;;5077292;28;20599;-89
2022/12/21 03:07:17;;;;;;;22.90;15.43;;;7.70;99.90;;;;;;5077404;28;20185;-88
2022/12/21 03:09:51;;;;;;;22.40;14.50;;;7.70;99.90;;;;;;5076849;28;20748;-88
2022/12/21 03:12:29;;;;;;;22.60;15.70;;;7.70;99.90;;;;;;5076268;28;20172;-88
2022/12/21 03:15:00;;;;;;;24.77;16.87;;;7.70;99.90;;;;;;5076543;28;20204;-87
2022/12/21 03:17:44;;;;;;;23.53;15.13;;;7.70;99.90;;;;;;5064773;28;20174;-88
2022/12/21 03:20:20;;;;;;;23.50;16.67;;;7.60;99.90;;;;;;5056635;28;20212;-88
2022/12/21 03:22:49;;;;;;;23.33;15.40;;;7.60;99.90;;;;;;5060038;28;20173;-88
2022/12/21 03:25:32;;;;;;;23.00;16.43;;;7.70;99.90;;;;;;5077811;28;20674;-90
2022/12/21 03:28:04;;;;;;;23.83;16.70;;;7.70;99.90;;;;;;5060046;28;20506;-87
2022/12/21 03:30:37;;;;;;;25.10;16.13;;;7.60;99.90;;;;;;5078038;28;20499;-88
2022/12/21 03:33:07;;;;;;;24.70;16.40;;;7.60;99.90;;;;;;5059929;28;20542;-89
2022/12/21 03:35:39;;;;;;;27.83;16.80;;;7.60;99.90;;;;;;5060093;28;20368;-88
2022/12/21 03:38:16;;;;;;;22.27;15.57;;;7.60;99.90;;;;;;5060100;28;20181;-90
2022/12/21 03:40:46;;;;;;;26.60;17.50;;;7.60;99.90;;;;;;5059679;28;20184;-90
2022/12/21 03:43:39;;;;;;;26.60;17.30;;;7.60;99.90;;;;;;5060113;28;20169;-89
2022/12/21 03:46:11;;;;;;;25.00;16.10;;;7.70;99.90;;;;;;5060132;28;20189;-89
2022/12/21 03:48:37;;;;;;;21.27;15.73;;;7.60;99.90;;;;;;5096746;28;20176;-88
2022/12/21 03:51:11;;;;;;;25.23;17.63;;;7.60;99.90;;;;;;5079932;28;20257;-89
2022/12/21 03:53:48;;;;;;;23.53;16.03;;;7.70;99.90;;;;;;5096677;28;20175;-89
2022/12/21 03:56:22;;;;;;;24.63;16.13;;;7.60;99.90;;;;;;5097601;28;20243;-88
2022/12/21 03:58:48;;;;;;;25.93;16.03;;;7.60;99.90;;;;;;5096425;28;20211;-89
2022/12/21 04:01:38;;;;;;;22.37;16.70;;;7.60;99.90;;;;;;5079587;28;20177;-89
2022/12/21 04:04:41;;;;;;;24.83;16.00;;;7.60;99.90;;;;;;5079490;28;20172;-89
2022/12/21 04:07:08;;;;;;;23.77;16.27;;;7.60;99.90;;;;;;5066928;28;20180;-89
2022/12/21 04:09:36;;;;;;;26.30;17.23;;;7.60;99.90;;;;;;5096238;28;20195;-89
2022/12/21 04:14:48;;;;;;;24.57;17.73;;;7.60;99.90;;;;;;5097084;28;20175;-89
2022/12/21 04:17:14;;;;;;;21.57;16.47;;;7.60;99.90;;;;;;5079350;28;20173;-89
2022/12/21 04:19:57;;;;;;;24.63;17.87;;;7.60;99.90;;;;;;5079247;28;20638;-90
2022/12/21 04:28:09;;;;;;;24.00;16.83;;;7.50;99.90;;;;;;5097636;28;20172;-89
2022/12/21 04:30:42;;;;;;;23.73;15.93;;;7.50;99.90;;;;;;5096967;28;20189;-90
2022/12/21 04:33:11;;;;;;;29.00;16.93;;;7.50;99.90;;;;;;5078722;28;20217;-90
2022/12/21 04:37:30;;;;;;;27.80;17.30;;;7.50;99.90;;;;;;5078389;28;20655;-90
2022/12/21 04:38:24;;;;;;;23.10;16.07;;;7.50;99.90;;;;;;5097101;28;20176;-90
2022/12/21 04:40:53;;;;;;;26.07;17.43;;;7.40;99.90;;;;;;5097350;28;20260;-91
2022/12/21 04:43:20;;;;;;;25.33;17.97;;;7.50;99.90;;;;;;5079078;28;20176;-90
2022/12/21 04:45:46;;;;;;;22.83;16.93;;;7.40;99.90;;;;;;5078604;28;20672;-90
2022/12/21 04:48:12;;;;;;;28.40;17.17;;;7.40;99.90;;;;;;5078798;28;20180;-90
2022/12/21 04:50:38;;;;;;;24.23;16.63;;;7.40;99.90;;;;;;5078671;28;20224;-90
2022/12/21 04:53:14;;;;;;;21.27;16.20;;;7.40;99.90;;;;;;5095571;28;20185;-91
2022/12/21 04:55:43;;;;;;;24.73;17.13;;;7.40;99.90;;;;;;5078939;28;20173;-91
2022/12/21 04:58:09;;;;;;;24.60;16.17;;;7.40;99.90;;;;;;5095632;28;20233;-91
2022/12/21 05:00:35;;;;;;;24.77;16.70;;;7.40;99.90;;;;;;5078381;28;20208;-91
2022/12/21 05:03:01;;;;;;;22.93;16.10;;;7.40;99.90;;;;;;5078494;28;20185;-89
2022/12/21 05:05:28;;;;;;;25.40;16.67;;;7.40;99.90;;;;;;5078439;28;20181;-91
2022/12/21 05:07:53;;;;;;;21.50;15.73;;;7.30;99.90;;;;;;5095205;28;20188;-91
2022/12/21 05:10:19;;;;;;;21.83;16.10;;;7.30;99.90;;;;;;5078461;28;20180;-90
2022/12/21 05:12:45;;;;;;;25.87;16.43;;;7.30;99.90;;;;;;5078369;28;20305;-89
2022/12/21 05:15:13;;;;;;;22.73;16.87;;;7.30;99.90;;;;;;5078079;28;20202;-90
2022/12/21 05:17:39;;;;;;;26.90;15.93;;;7.30;99.90;;;;;;5078312;28;20285;-90
2022/12/21 05:20:05;;;;;;;25.03;16.53;;;7.30;99.90;;;;;;5078379;28;20565;-90
2022/12/21 05:22:38;;;;;;;24.83;16.57;;;7.30;99.90;;;;;;5096222;28;20517;-91
2022/12/21 05:25:04;;;;;;;22.77;16.20;;;7.30;99.90;;;;;;5078258;28;20180;-90
2022/12/21 05:27:30;;;;;;;22.60;16.73;;;7.30;99.90;;;;;;5078327;28;20181;-91
2022/12/21 05:29:55;;;;;;;24.10;17.10;;;7.30;99.90;;;;;;5077977;28;20180;-89
2022/12/21 05:32:31;;;;;;;23.50;16.63;;;7.30;99.90;;;;;;5078205;28;20177;-91
2022/12/21 05:34:57;;;;;;;20.77;15.60;;;7.30;99.90;;;;;;5077959;28;20524;-90
2022/12/21 05:37:23;;;;;;;23.77;16.20;;;7.30;99.90;;;;;;5078281;28;20191;-90
2022/12/21 05:39:49;;;;;;;22.07;16.07;;;7.30;99.90;;;;;;5077956;28;20205;-90
2022/12/21 05:42:15;;;;;;;23.43;16.57;;;7.30;99.90;;;;;;5077802;28;20229;-90
2022/12/21 05:44:40;;;;;;;23.73;16.60;;;7.30;99.90;;;;;;5074524;28;20185;-91
2022/12/21 05:47:06;;;;;;;23.63;16.90;;;7.30;99.90;;;;;;5057591;28;20181;-91
2022/12/21 05:49:31;;;;;;;24.10;16.23;;;7.20;99.90;;;;;;5054234;28;20668;-90
2022/12/21 05:51:57;;;;;;;25.13;16.57;;;7.20;99.90;;;;;;5054423;28;20209;-91
2022/12/21 05:54:23;;;;;;;25.80;16.77;;;7.20;99.90;;;;;;5054183;28;20189;-91
2022/12/21 05:56:49;;;;;;;30.23;17.00;;;7.20;99.90;;;;;;5054590;28;20178;-91
2022/12/21 05:59:15;;;;;;;30.43;17.17;;;7.20;99.90;;;;;;5054122;28;20248;-90
2022/12/21 06:01:42;;;;;;;24.17;17.40;;;7.20;99.90;;;;;;5054206;28;20185;-91
2022/12/21 06:04:08;;;;;;;23.57;16.57;;;7.20;99.90;;;;;;5054047;28;20662;-92
2022/12/21 06:06:33;;;;;;;22.53;16.33;;;7.20;99.90;;;;;;5054415;28;20181;-91
2022/12/21 06:08:59;;;;;;;24.47;16.40;;;7.20;99.90;;;;;;5054066;28;20200;-90
2022/12/21 06:11:25;;;;;;;24.03;17.33;;;7.10;99.90;;;;;;5054008;28;20232;-91
2022/12/21 06:13:53;;;;;;;27.70;16.73;;;7.10;99.90;;;;;;5054049;28;20281;-89
2022/12/21 06:16:21;;;;;;;24.37;17.40;;;7.10;99.90;;;;;;5071036;28;20196;-90
2022/12/21 06:18:47;;;;;;;27.60;17.77;;;7.10;99.90;;;;;;5074360;28;20212;-91
2022/12/21 06:21:15;;;;;;;26.83;17.60;;;7.10;99.90;;;;;;5074016;28;20181;-92
2022/12/21 06:23:43;;;;;;;27.57;18.90;;;7.20;99.90;;;;;;5073956;28;20271;-92
2022/12/21 06:26:12;;;;;;;28.07;17.97;;;7.20;99.90;;;;;;5073859;28;20177;-90
2022/12/21 06:28:38;;;;;;;30.67;19.10;;;7.20;99.90;;;;;;5074002;28;20181;-90
2022/12/21 06:31:06;;;;;;;30.10;19.80;;;7.20;99.90;;;;;;5073751;28;20230;-90
2022/12/21 06:33:35;;;;;;;27.83;18.70;;;7.30;99.90;;;;;;5073749;28;20188;-91
2022/12/21 06:36:01;;;;;;;30.20;19.40;;;7.20;99.90;;;;;;5075111;28;20169;-90
2022/12/21 06:38:27;;;;;;;29.43;18.87;;;7.30;99.90;;;;;;5073868;28;20188;-90
2022/12/21 06:41:07;;;;;;;28.40;18.80;;;7.30;99.90;;;;;;5073658;28;20177;-90
2022/12/21 06:43:35;;;;;;;32.50;20.00;;;7.20;99.90;;;;;;5073656;28;20200;-90
2022/12/21 06:46:04;;;;;;;33.00;19.87;;;7.30;99.90;;;;;;5059186;28;20189;-90
2022/12/21 06:48:31;;;;;;;30.93;20.90;;;7.30;99.90;;;;;;5053609;28;20205;-90
2022/12/21 06:50:59;;;;;;;34.40;20.37;;;7.30;99.90;;;;;;5053528;28;20292;-91
2022/12/21 06:53:29;;;;;;;32.13;19.97;;;7.30;99.90;;;;;;5070352;28;20268;-90
2022/12/21 06:56:04;;;;;;;33.03;20.40;;;7.30;99.90;;;;;;5073592;28;20173;-90
2022/12/21 06:58:30;;;;;;;32.87;20.23;;;7.30;99.90;;;;;;5073152;28;20615;-90
2022/12/21 07:01:02;;;;;;;34.37;20.00;;;7.30;99.90;;;;;;5073388;28;20185;-90
2022/12/21 07:03:30;;;;;;;36.73;20.93;;;7.30;99.90;;;;;;5073424;28;20664;-90
2022/12/21 07:05:55;;;;;;;32.87;21.30;;;7.30;99.90;;;;;;5073567;28;20181;-89
2022/12/21 07:08:21;;;;;;;32.70;20.77;;;7.30;99.90;;;;;;5073356;28;20264;-89
2022/12/21 07:10:47;;;;;;;36.87;21.83;;;7.30;99.90;;;;;;5073271;28;20181;-89
2022/12/21 07:13:13;;;;;;;37.10;23.17;;;7.30;99.90;;;;;;5072531;28;20211;-89
2022/12/21 07:15:38;;;;;;;36.53;22.40;;;7.30;99.90;;;;;;5071496;28;20242;-90
2022/12/21 07:18:04;;;;;;;35.63;22.90;;;7.30;99.90;;;;;;5073540;28;20185;-88
2022/12/21 07:20:30;;;;;;;36.93;22.23;;;7.30;99.90;;;;;;5072293;28;20213;-90
2022/12/21 07:22:56;;;;;;;37.67;23.50;;;7.30;99.90;;;;;;5073676;28;20177;-90
2022/12/21 07:25:22;;;;;;;39.37;23.47;;;7.30;99.90;;;;;;5072676;28;20170;-90
2022/12/21 07:27:47;;;;;;;43.80;23.80;;;7.30;99.90;;;;;;5073816;28;20264;-90
2022/12/21 07:30:13;;;;;;;37.80;23.20;;;7.30;99.90;;;;;;5065898;28;20213;-90
2022/12/21 07:32:39;;;;;;;35.83;22.43;;;7.30;99.90;;;;;;5056049;28;20205;-90
2022/12/21 07:35:06;;;;;;;42.03;22.53;;;7.30;99.90;;;;;;5055566;28;20173;-91
2022/12/21 07:37:32;;;;;;;38.50;22.50;;;7.30;99.90;;;;;;5056139;28;20682;-91
2022/12/21 07:39:58;;;;;;;35.67;22.63;;;7.30;99.90;;;;;;5056014;28;20220;-90
2022/12/21 07:42:24;;;;;;;40.40;22.57;;;7.40;99.90;;;;;;5056167;28;20178;-91
2022/12/21 07:44:50;;;;;;;42.20;23.07;;;7.30;99.90;;;;;;5059457;28;20185;-90
2022/12/21 07:47:15;;;;;;;40.70;24.00;;;7.30;99.90;;;;;;5075726;28;20185;-90
2022/12/21 07:49:41;;;;;;;41.60;24.23;;;7.30;99.90;;;;;;5075652;28;20286;-90
2022/12/21 07:52:07;;;;;;;42.33;24.63;;;7.30;99.90;;;;;;5075890;28;20177;-89
2022/12/21 07:54:32;;;;;;;40.03;24.33;;;7.30;99.90;;;;;;5075774;28;20223;-91
2022/12/21 07:56:59;;;;;;;43.93;24.97;;;7.30;99.90;;;;;;5075804;28;20185;-90
2022/12/21 07:59:25;;;;;;;47.10;23.83;;;7.30;99.90;;;;;;5075653;28;20220;-91
2022/12/21 08:01:50;;;;;;;47.73;24.33;;;7.40;99.90;;;;;;5075453;28;20181;-91
2022/12/21 08:04:16;;;;;;;38.33;23.63;;;7.40;99.90;;;;;;5075433;28;20189;-91
2022/12/21 08:06:42;;;;;;;43.63;25.40;;;7.40;99.90;;;;;;5075552;28;20173;-90
2022/12/21 08:09:09;;;;;;;42.97;24.43;;;7.40;99.90;;;;;;5075556;28;20574;-90
2022/12/21 08:11:35;;;;;;;41.93;24.90;;;7.40;99.90;;;;;;5075772;28;20177;-90
2022/12/21 08:14:01;;;;;;;46.90;26.83;;;7.40;99.90;;;;;;5075220;28;20204;-90
2022/12/21 08:16:26;;;;;;;41.37;24.93;;;7.40;99.90;;;;;;5075073;28;20210;-90
2022/12/21 08:18:55;;;;;;;44.53;24.90;;;7.40;99.90;;;;;;5074924;28;20621;-89
2022/12/21 08:21:20;;;;;;;40.43;24.83;;;7.40;99.90;;;;;;5075149;28;20204;-89
2022/12/21 08:23:48;;;;;;;43.77;23.93;;;7.40;99.90;;;;;;5075094;28;20612;-91
2022/12/21 08:26:14;;;;;;;40.43;24.70;;;7.40;99.90;;;;;;5073293;28;20565;-89
2022/12/21 08:28:41;;;;;;;39.33;24.87;;;7.40;99.90;;;;;;5075248;28;20174;-91
2022/12/21 08:31:10;;;;;;;43.27;25.27;;;7.50;99.90;;;;;;5073740;28;20207;-91
2022/12/21 08:33:37;;;;;;;43.33;25.87;;;7.40;99.90;;;;;;5074638;28;20273;-91
2022/12/21 08:36:09;;;;;;;40.40;24.27;;;7.40;99.90;;;;;;5074912;28;20181;-91
2022/12/21 08:38:34;;;;;;;43.60;25.40;;;7.40;99.90;;;;;;5074666;28;20207;-92
2022/12/21 08:41:01;;;;;;;42.63;24.73;;;7.40;99.90;;;;;;5073970;28;20185;-92
2022/12/21 08:43:27;;;;;;;43.67;25.13;;;7.40;99.90;;;;;;5074491;28;20184;-91
2022/12/21 08:45:52;;;;;;;39.23;24.73;;;7.40;99.90;;;;;;5075013;28;20360;-92
2022/12/21 08:48:18;;;;;;;42.27;24.37;;;7.40;99.90;;;;;;5076113;28;20267;-92
2022/12/21 08:50:50;;;;;;;44.43;24.87;;;7.40;99.90;;;;;;5074987;28;20315;-92
2022/12/21 08:53:16;;;;;;;44.70;24.80;;;7.40;99.90;;;;;;5074904;28;20201;-92
2022/12/21 08:55:42;;;;;;;38.03;24.23;;;7.40;99.90;;;;;;5074702;28;20596;-92
2022/12/21 08:58:07;;;;;;;38.97;23.33;;;7.40;99.90;;;;;;5074748;28;20185;-93
2022/12/21 09:00:33;;;;;;;48.83;24.50;;;7.40;99.90;;;;;;5074736;28;20228;-93
2022/12/21 09:03:00;;;;;;;40.13;24.03;;;7.40;99.90;;;;;;5074353;28;20187;-92
2022/12/21 09:05:25;;;;;;;41.03;25.27;;;7.40;99.90;;;;;;5074631;28;20183;-93
2022/12/21 09:07:51;;;;;;;38.20;23.33;;;7.50;99.90;;;;;;5075064;28;20173;-92
2022/12/21 09:10:17;;;;;;;38.07;23.13;;;7.50;99.90;;;;;;5074981;28;20231;-92
2022/12/21 09:12:43;;;;;;;39.50;23.80;;;7.50;99.90;;;;;;5074756;28;20188;-92
2022/12/21 09:15:09;;;;;;;39.87;22.90;;;7.50;99.90;;;;;;5073904;28;20178;-91
2022/12/21 09:17:35;;;;;;;34.47;21.57;;;7.50;99.90;;;;;;5074229;28;20596;-91
2022/12/21 09:20:01;;;;;;;32.37;21.30;;;7.50;99.90;;;;;;5074238;28;20266;-92
2022/12/21 09:22:27;;;;;;;36.03;22.03;;;7.60;99.90;;;;;;5074397;28;20177;-90
2022/12/21 09:24:52;;;;;;;35.47;23.17;;;7.60;99.90;;;;;;5074360;28;20184;-92
2022/12/21 09:27:18;;;;;;;31.97;21.70;;;7.60;99.90;;;;;;5074294;28;20515;-91
2022/12/21 09:29:44;;;;;;;30.57;20.13;;;7.60;99.90;;;;;;5075291;28;20185;-92
2022/12/21 09:32:10;;;;;;;30.73;20.07;;;7.70;99.90;;;;;;5074013;28;20180;-91
2022/12/21 09:34:36;;;;;;;29.77;20.80;;;7.60;99.90;;;;;;5074162;28;20177;-91
2022/12/21 09:37:01;;;;;;;32.10;21.10;;;7.60;99.90;;;;;;5074289;28;20202;-92
2022/12/21 09:39:27;;;;;;;31.63;20.93;;;7.70;99.90;;;;;;5073974;28;20212;-93
2022/12/21 09:42:07;;;;;;;27.55;18.98;;;7.70;99.90;;;;;;5074088;28;20257;-92
2022/12/21 09:45:02;;;;;;;27.63;19.23;;;7.70;99.90;;;;;;5075013;28;20189;-92
2022/12/21 09:47:47;;;;;;;27.60;19.47;;;7.80;99.90;;;;;;5073881;28;20306;-92
2022/12/21 09:50:42;;;;;;;30.13;19.40;;;7.80;99.90;;;;;;5073615;28;20245;-90
2022/12/21 09:53:20;;;;;;;32.20;19.73;;;7.80;99.90;;;;;;5074695;28;20299;-92
2022/12/21 09:55:53;;;;;;;29.20;19.13;;;7.90;99.90;;;;;;5073598;28;20176;-92
2022/12/21 09:58:24;;;;;;;33.07;19.73;;;7.90;99.90;;;;;;5073898;28;20612;-92
2022/12/21 10:00:58;;;;;;;29.03;19.23;;;8.00;99.90;;;;;;5073330;28;20539;-92
2022/12/21 10:03:29;;;;;;;30.10;20.07;;;8.00;99.90;;;;;;5073417;28;20642;-91
2022/12/21 10:06:21;;;;;;;27.58;19.13;;;8.10;99.90;;;;;;5073713;28;20172;-93
2022/12/21 10:09:09;;;;;;;26.88;18.60;;;8.10;99.90;;;;;;5073735;28;20622;-91
2022/12/21 10:11:46;;;;;;;27.20;18.50;;;8.10;99.90;;;;;;5074835;28;20189;-92
2022/12/21 10:14:59;;;;;;;27.60;17.83;;;8.10;99.90;;;;;;5073552;28;20177;-91
2022/12/21 10:17:24;;;;;;;27.08;16.85;;;8.10;99.90;;;;;;5054364;28;20620;-92
2022/12/21 10:20:28;;;;;;;24.77;17.95;;;8.10;99.90;;;;;;5053083;28;20205;-92
2022/12/21 10:23:03;;;;;;;22.65;16.20;;;8.00;99.90;;;;;;5040325;28;20235;-92
2022/12/21 10:25:45;;;;;;;24.00;16.90;;;8.00;99.90;;;;;;5053256;28;20204;-93
2022/12/21 10:28:32;;;;;;;28.58;16.55;;;8.00;99.90;;;;;;5053364;28;20188;-92
2022/12/21 10:31:05;;;;;;;24.50;16.40;;;8.00;99.90;;;;;;5053092;28;20176;-92
2022/12/21 10:33:36;;;;;;;25.17;16.43;;;8.00;99.90;;;;;;5053063;28;20257;-93
2022/12/21 10:36:04;;;;;;;22.23;15.63;;;8.00;99.90;;;;;;5053294;28;20204;-91
2022/12/21 10:38:34;;;;;;;21.42;15.57;;;8.00;99.90;;;;;;5053131;28;20265;-92
2022/12/21 10:41:03;;;;;;;22.43;15.93;;;8.00;99.90;;;;;;5054330;28;20185;-94
2022/12/21 10:43:35;;;;;;;20.52;15.05;;;8.00;99.90;;;;;;5053244;28;20174;-93
2022/12/21 10:46:01;;;;;;;19.40;14.35;;;8.00;99.90;;;;;;5065473;28;20191;-91
2022/12/21 10:48:27;;;;;;;21.87;14.90;;;8.00;99.90;;;;;;5072965;28;20260;-91
2022/12/21 10:50:59;;;;;;;20.13;14.93;;;8.00;99.90;;;;;;5072718;28;20306;-91
2022/12/21 10:53:27;;;;;;;21.10;14.73;;;8.00;99.90;;;;;;5073107;28;20208;-92
2022/12/21 10:56:01;;;;;;;21.87;15.23;;;8.00;99.90;;;;;;5073208;28;20553;-92
2022/12/21 10:58:36;;;;;;;22.50;15.43;;;8.00;99.90;;;;;;5073192;28;20686;-93
2022/12/21 11:01:13;;;;;;;23.37;15.93;;;8.00;99.90;;;;;;5073006;28;20192;-93
2022/12/21 11:03:39;;;;;;;23.37;16.00;;;8.00;99.90;;;;;;5074173;28;20177;-92
2022/12/21 11:06:11;;;;;;;22.53;15.17;;;8.10;99.90;;;;;;5076843;28;20188;-92
2022/12/21 11:08:46;;;;;;;22.03;15.73;;;8.00;99.90;;;;;;5077102;28;20188;-93
2022/12/21 11:11:29;;;;;;;28.50;15.50;;;8.00;99.90;;;;;;5077159;28;20176;-95
2022/12/21 11:14:16;;;;;;;22.73;15.77;;;8.00;99.90;;;;;;5076844;28;20177;-95
2022/12/21 11:16:44;;;;;;;26.10;15.90;;;8.00;99.90;;;;;;5077400;28;20196;-95
2022/12/21 11:19:16;;;;;;;22.60;15.40;;;8.10;99.90;;;;;;5076742;28;20208;-93
2022/12/21 11:21:47;;;;;;;23.27;15.50;;;8.10;99.90;;;;;;5076644;28;20227;-94
2022/12/21 11:24:32;;;;;;;23.55;16.45;;;8.10;99.90;;;;;;5076520;28;20199;-95
2022/12/21 11:27:03;;;;;;;23.53;16.77;;;8.10;99.90;;;;;;5076945;28;20575;-94
2022/12/21 11:29:59;;;;;;;24.13;15.67;;;8.10;99.90;;;;;;5076711;28;20197;-93
2022/12/21 11:32:28;;;;;;;27.17;16.67;;;8.10;99.90;;;;;;5076116;28;20169;-93
2022/12/21 11:35:05;;;;;;;29.00;17.57;;;8.10;99.90;;;;;;5076397;28;20208;-93
2022/12/21 11:37:37;;;;;;;25.00;16.90;;;8.20;99.90;;;;;;5076820;28;20250;-92
2022/12/21 11:40:16;;;;;;;29.87;17.60;;;8.20;99.90;;;;;;5076826;28;20208;-94
2022/12/21 11:43:04;;;;;;;29.03;17.80;;;8.30;99.90;;;;;;5076892;28;20234;-94
2022/12/21 11:45:46;;;;;;;29.53;18.33;;;8.30;99.90;;;;;;5076592;28;20200;-93
2022/12/21 11:48:20;;;;;;;26.63;17.83;;;8.30;99.90;;;;;;5077802;28;20615;-93
2022/12/21 11:50:58;;;;;;;27.07;18.57;;;8.40;99.90;;;;;;5076645;28;20318;-94
2022/12/21 11:53:58;;;;;;;27.57;17.53;;;8.40;99.90;;;;;;5077146;28;20563;-94
2022/12/21 11:56:39;;;;;;;27.57;18.20;;;8.40;99.90;;;;;;5076804;28;20199;-95
2022/12/21 11:59:30;;;;;;;30.20;18.57;;;8.40;99.90;;;;;;5076352;28;20212;-94
2022/12/21 12:02:04;;;;;;;29.10;18.27;;;8.40;99.90;;;;;;5076109;28;20233;-93
2022/12/21 12:04:40;;;;;;;26.13;17.67;;;8.40;99.90;;;;;;5076475;28;20169;-96
2022/12/21 12:07:29;;;;;;;30.83;18.53;;;8.30;99.90;;;;;;5076431;28;20243;-96
2022/12/21 12:10:19;;;;;;;28.90;18.67;;;8.30;99.90;;;;;;5078523;28;20166;-96
2022/12/21 12:13:11;;;;;;;28.00;18.43;;;8.30;99.90;;;;;;5075836;28;20256;-94
2022/12/21 12:15:40;;;;;;;26.73;17.38;;;8.40;99.90;;;;;;5075523;28;20185;-94
2022/12/21 12:18:25;;;;;;;24.83;16.70;;;8.40;99.90;;;;;;5075862;28;20191;-94
2022/12/21 12:21:26;;;;;;;27.25;17.38;;;8.40;99.90;;;;;;5075707;28;20209;-93
2022/12/21 12:24:04;;;;;;;26.45;17.85;;;8.40;99.90;;;;;;5076750;28;20169;-94
2022/12/21 12:26:59;;;;;;;29.63;18.50;;;8.40;99.90;;;;;;5075719;28;20604;-93
2022/12/21 12:30:05;;;;;;;31.80;19.02;;;8.40;99.90;;;;;;5075716;28;20177;-92
2022/12/21 12:32:45;;;;;;;27.17;17.03;;;8.40;99.90;;;;;;5076591;28;20169;-92
2022/12/21 12:35:26;;;;;;;31.60;17.92;;;8.50;99.90;;;;;;5075278;28;20509;-91
2022/12/21 12:38:10;;;;;;;29.67;19.13;;;8.50;99.90;;;;;;5075410;28;20208;-94
2022/12/21 12:41:08;;;;;;;29.30;18.15;;;8.60;99.90;;;;;;5075180;28;20270;-94
2022/12/21 12:43:54;;;;;;;25.20;17.08;;;8.60;99.90;;;;;;5074972;28;20243;-92
2022/12/21 12:46:36;;;;;;;25.05;17.15;;;8.60;99.90;;;;;;5074831;28;20195;-93
2022/12/21 12:49:56;;;;;;;25.33;16.53;;;8.50;99.90;;;;;;5074907;28;20233;-90
2022/12/21 12:52:33;;;;;;;26.30;15.38;;;8.50;99.90;;;;;;4978410;28;20227;-90
2022/12/21 12:55:20;;;;;;;26.27;15.63;;;8.50;99.90;;;;;;4994763;28;20172;-92
2022/12/21 12:57:49;;;;;;;22.60;15.23;;;8.50;99.90;;;;;;5043731;28;20184;-91
2022/12/21 13:00:18;;;;;;;25.80;16.77;;;8.50;99.90;;;;;;5074706;28;20241;-92
2022/12/21 13:03:08;;;;;;;28.37;16.73;;;8.50;99.90;;;;;;5074450;28;20563;-92
2022/12/21 13:05:44;;;;;;;27.17;15.57;;;8.50;99.90;;;;;;5074928;28;20556;-91
2022/12/21 13:08:30;;;;;;;24.35;14.43;;;8.50;99.90;;;;;;5074713;28;20270;-92
2022/12/21 13:11:03;;;;;;;23.57;13.40;;;8.50;99.90;;;;;;5073860;28;20188;-91
2022/12/21 13:13:45;;;;;;;22.47;15.17;;;8.40;99.90;;;;;;5074385;28;20302;-91
2022/12/21 13:16:23;;;;;;;20.53;13.93;;;8.40;99.90;;;;;;5073864;28;20189;-91